Terminal Aerodrome Forecast
Issued by NWS

Home | Current Version | Previous Version | Text Only | Print | Product List | Glossary On
Versions: 1 2 3 4 5 6 7 8 9 10 11 12
908
FTUS43 KGRB 062329
TAFAUW
TAF
KAUW 062329Z 0700/0724 24008KT P6SM SCT120 BKN250 WS010/26035KT
     FM070500 33010G17KT P6SM BKN090 WS015/36035KT
     FM070800 34009KT P6SM SCT090
     FM071500 32011G17KT P6SM SCT070 SCT100=

USA.gov is the U.S. government's official web portal to all federal, state and local government web resources and services.